Time;durP1;ratioP1;P1;durP2;ratioP2;P2;SDS_P1;SDS_P2;PMS_P1;PMS_P2;Temp;Humidity;BMP_temperature;BMP_pressure;BME280_temperature;BME280_humidity;BME280_pressure;Samples;Min_cycle;Max_cycle;Signal;HPM_P1;HPM_P2
2023/07/27 00:02:02;;;;;;;1.35;1.05;;;12.80;99.90;;;;;;4855230;29;20050;-75
2023/07/27 00:04:28;;;;;;;1.42;1.25;;;12.80;99.90;;;;;;4831567;29;20050;-77
2023/07/27 00:06:53;;;;;;;1.33;1.10;;;12.80;99.90;;;;;;4839103;29;20046;-77
2023/07/27 00:09:19;;;;;;;2.22;1.30;;;12.80;99.90;;;;;;4823774;29;20153;-76
2023/07/27 00:11:45;;;;;;;1.40;1.10;;;12.80;99.90;;;;;;4823466;29;20399;-76
2023/07/27 00:14:11;;;;;;;3.00;1.20;;;12.80;99.90;;;;;;4867121;29;20068;-75
2023/07/27 00:16:36;;;;;;;1.73;1.35;;;12.80;99.90;;;;;;4853619;29;20375;-75
2023/07/27 00:19:02;;;;;;;1.60;1.17;;;12.70;99.90;;;;;;4822060;29;20118;-75
2023/07/27 00:21:28;;;;;;;2.13;1.35;;;12.80;99.90;;;;;;4854003;29;20125;-75
2023/07/27 00:23:54;;;;;;;1.40;1.08;;;12.80;99.90;;;;;;4853046;29;20049;-75
2023/07/27 00:26:19;;;;;;;1.80;1.30;;;12.80;99.90;;;;;;4837566;29;20041;-75
2023/07/27 00:28:45;;;;;;;2.10;1.40;;;12.80;99.90;;;;;;4854271;29;20409;-75
2023/07/27 00:31:10;;;;;;;1.70;1.20;;;12.90;99.90;;;;;;4839558;29;20045;-75
2023/07/27 00:33:36;;;;;;;2.38;1.42;;;12.90;99.90;;;;;;4824595;29;20051;-76
2023/07/27 00:36:02;;;;;;;1.90;1.30;;;12.90;99.90;;;;;;4837010;29;20049;-75
2023/07/27 00:38:28;;;;;;;2.10;1.45;;;12.90;99.90;;;;;;4855507;29;20128;-76
2023/07/27 00:40:54;;;;;;;1.95;1.63;;;12.90;99.90;;;;;;4853004;29;20136;-76
2023/07/27 00:43:19;;;;;;;1.90;1.38;;;12.90;99.90;;;;;;4858523;29;20063;-75
2023/07/27 00:45:48;;;;;;;1.70;1.45;;;13.00;99.90;;;;;;4839262;29;20106;-75
2023/07/27 00:48:13;;;;;;;2.45;1.50;;;13.00;99.90;;;;;;4852300;29;20050;-76
2023/07/27 00:50:40;;;;;;;1.92;1.50;;;12.90;99.90;;;;;;4838162;29;20114;-76
2023/07/27 00:53:08;;;;;;;2.33;1.70;;;12.90;99.90;;;;;;4825244;29;20070;-76
2023/07/27 00:55:35;;;;;;;1.75;1.30;;;12.90;99.90;;;;;;4850453;29;20494;-76
2023/07/27 00:58:01;;;;;;;3.25;1.70;;;12.90;99.90;;;;;;4857924;29;20041;-76
2023/07/27 01:00:27;;;;;;;1.75;1.50;;;12.90;99.90;;;;;;4825841;29;20060;-76
2023/07/27 01:02:53;;;;;;;2.30;1.70;;;12.90;99.90;;;;;;4825305;29;20041;-76
2023/07/27 01:05:19;;;;;;;2.65;1.90;;;12.90;99.90;;;;;;4837138;29;20053;-74
2023/07/27 01:07:45;;;;;;;2.78;1.90;;;12.90;99.90;;;;;;4854226;29;20050;-74
2023/07/27 01:10:11;;;;;;;2.80;1.73;;;12.90;99.90;;;;;;4824023;29;20570;-75
2023/07/27 01:12:52;;;;;;;2.58;1.80;;;12.90;99.90;;;;;;4853815;29;20542;-74
2023/07/27 01:15:22;;;;;;;2.38;1.60;;;13.00;99.90;;;;;;4853802;29;20090;-74
2023/07/27 01:17:51;;;;;;;2.10;1.67;;;13.00;99.90;;;;;;4823645;29;20110;-74
2023/07/27 01:20:31;;;;;;;1.90;1.63;;;12.90;99.90;;;;;;4854185;29;20050;-74
2023/07/27 01:23:25;;;;;;;2.28;1.88;;;13.00;99.90;;;;;;4810500;29;20057;-75
2023/07/27 01:26:12;;;;;;;2.33;1.73;;;13.00;99.90;;;;;;4798795;29;20099;-75
2023/07/27 01:28:43;;;;;;;2.38;1.58;;;13.00;99.90;;;;;;4847174;29;20053;-75
2023/07/27 01:31:18;;;;;;;2.70;1.60;;;13.00;99.90;;;;;;4868892;29;20053;-75
2023/07/27 01:33:52;;;;;;;2.35;1.65;;;13.00;99.90;;;;;;4833354;29;20056;-75
2023/07/27 01:36:21;;;;;;;2.00;1.80;;;13.00;99.90;;;;;;4859077;29;20093;-75
2023/07/27 01:38:50;;;;;;;2.10;1.50;;;12.90;99.90;;;;;;4835352;29;20085;-74
2023/07/27 01:41:16;;;;;;;2.72;1.80;;;13.00;99.90;;;;;;4860067;29;20077;-75
2023/07/27 01:43:43;;;;;;;2.45;1.83;;;13.00;99.90;;;;;;4840051;29;20085;-75
2023/07/27 01:46:11;;;;;;;2.95;1.45;;;12.90;99.90;;;;;;4844123;29;20049;-74
2023/07/27 01:48:39;;;;;;;2.58;1.65;;;12.90;99.90;;;;;;4842079;29;20054;-74
2023/07/27 01:51:08;;;;;;;2.40;1.80;;;12.90;99.90;;;;;;4854860;29;20129;-74
2023/07/27 01:53:35;;;;;;;2.15;1.38;;;12.90;99.90;;;;;;4860162;29;20057;-74
2023/07/27 01:56:04;;;;;;;2.33;1.63;;;12.90;99.90;;;;;;4845222;29;20152;-74
2023/07/27 01:58:30;;;;;;;1.85;1.33;;;12.90;99.90;;;;;;4827458;29;20074;-74
2023/07/27 02:00:57;;;;;;;2.75;1.70;;;12.90;99.90;;;;;;4842131;29;20061;-75
2023/07/27 02:03:23;;;;;;;2.00;1.50;;;12.90;99.90;;;;;;4856117;29;20050;-74
2023/07/27 02:05:49;;;;;;;2.50;1.40;;;12.90;99.90;;;;;;4856012;29;20402;-74
2023/07/27 02:08:14;;;;;;;2.15;1.63;;;12.90;99.90;;;;;;4855766;29;20477;-74
2023/07/27 02:10:41;;;;;;;2.03;1.60;;;12.90;99.90;;;;;;4825644;29;20406;-74
2023/07/27 02:13:14;;;;;;;1.90;1.38;;;12.90;99.90;;;;;;4826039;29;20045;-74
2023/07/27 02:15:46;;;;;;;1.63;1.40;;;12.90;99.90;;;;;;4825549;29;20062;-74
2023/07/27 02:18:18;;;;;;;1.60;1.27;;;13.00;99.90;;;;;;4854063;29;20046;-74
2023/07/27 02:20:44;;;;;;;1.67;1.23;;;13.00;99.90;;;;;;4856160;29;20042;-74
2023/07/27 02:23:11;;;;;;;2.50;1.70;;;13.00;99.90;;;;;;4810214;29;20053;-74
2023/07/27 02:25:37;;;;;;;1.83;1.35;;;13.00;99.90;;;;;;4811103;29;20052;-74
2023/07/27 02:28:03;;;;;;;2.03;1.50;;;13.00;99.90;;;;;;4856810;29;20148;-74
2023/07/27 02:30:29;;;;;;;2.22;1.40;;;13.10;99.90;;;;;;4826270;29;20105;-75
2023/07/27 02:32:55;;;;;;;1.70;1.25;;;13.10;99.90;;;;;;4840998;29;20056;-74
2023/07/27 02:35:21;;;;;;;1.83;1.35;;;13.10;99.90;;;;;;4856292;29;20228;-74
2023/07/27 02:37:46;;;;;;;1.88;1.35;;;13.10;99.90;;;;;;4856420;29;20057;-74
2023/07/27 02:40:12;;;;;;;2.08;1.35;;;13.10;99.90;;;;;;4856422;29;20050;-74
2023/07/27 02:42:38;;;;;;;2.40;1.40;;;13.20;99.90;;;;;;4841045;29;20046;-74
2023/07/27 02:45:04;;;;;;;1.92;1.42;;;13.10;99.90;;;;;;4855661;29;20053;-74
2023/07/27 02:47:29;;;;;;;2.03;1.50;;;13.20;99.90;;;;;;4856175;29;20050;-74
2023/07/27 02:49:55;;;;;;;1.63;1.27;;;13.20;99.90;;;;;;4855096;29;20050;-74
2023/07/27 02:52:21;;;;;;;1.75;1.30;;;13.20;99.90;;;;;;4825016;29;20053;-74
2023/07/27 02:54:46;;;;;;;1.70;1.30;;;13.20;99.90;;;;;;4826387;29;20064;-74
2023/07/27 02:57:12;;;;;;;1.83;1.30;;;13.20;99.90;;;;;;4824647;29;20046;-74
2023/07/27 02:59:38;;;;;;;1.92;1.50;;;13.20;99.90;;;;;;4825499;29;20652;-74
2023/07/27 03:02:03;;;;;;;1.83;1.42;;;13.20;99.90;;;;;;4825715;29;20042;-74
2023/07/27 03:04:29;;;;;;;2.13;1.50;;;13.30;97.50;;;;;;4840696;29;20124;-74
2023/07/27 03:06:55;;;;;;;1.90;1.40;;;13.30;93.00;;;;;;4832916;29;20085;-74
2023/07/27 03:09:20;;;;;;;2.45;1.70;;;13.40;81.00;;;;;;4862943;29;20478;-74
2023/07/27 03:11:47;;;;;;;2.35;1.63;;;13.30;70.40;;;;;;4856015;29;20512;-74
2023/07/27 03:14:13;;;;;;;2.60;1.80;;;13.40;64.40;;;;;;4837832;29;20045;-74
2023/07/27 03:16:38;;;;;;;1.83;1.50;;;13.40;54.60;;;;;;4832504;29;20068;-74
2023/07/27 03:19:04;;;;;;;2.22;1.60;;;13.40;41.80;;;;;;4861409;29;20042;-74
2023/07/27 03:21:30;;;;;;;1.95;1.50;;;13.40;30.40;;;;;;4861121;29;20073;-74
2023/07/27 03:23:55;;;;;;;2.95;1.58;;;13.40;19.40;;;;;;4857975;29;20060;-74
2023/07/27 03:26:21;;;;;;;2.25;1.67;;;13.50;9.70;;;;;;4841015;29;20505;-74
2023/07/27 03:28:47;;;;;;;2.30;1.70;;;13.50;1.00;;;;;;4872780;29;20131;-74
2023/07/27 03:31:17;;;;;;;2.00;1.63;;;13.50;1.00;;;;;;4838731;29;20085;-74
2023/07/27 03:33:42;;;;;;;2.13;1.48;;;13.50;1.00;;;;;;4855410;29;20075;-74
2023/07/27 03:36:08;;;;;;;2.83;1.67;;;13.60;1.00;;;;;;4838078;29;20150;-74
2023/07/27 03:38:35;;;;;;;1.55;1.23;;;13.60;1.00;;;;;;4838786;29;20514;-74
2023/07/27 03:41:00;;;;;;;1.95;1.60;;;13.60;1.00;;;;;;4838550;29;20807;-74
2023/07/27 03:43:26;;;;;;;2.30;1.75;;;13.70;1.00;;;;;;4853440;29;20142;-74
2023/07/27 03:45:53;;;;;;;2.60;1.85;;;13.70;99.90;;;;;;4823629;29;20069;-74
2023/07/27 03:48:18;;;;;;;2.45;1.77;;;13.70;99.90;;;;;;4837467;29;20047;-74
2023/07/27 03:50:44;;;;;;;2.38;2.00;;;13.80;99.90;;;;;;4855566;29;20397;-74
2023/07/27 03:53:10;;;;;;;2.63;2.10;;;13.80;99.90;;;;;;4836073;29;20471;-75
2023/07/27 03:55:35;;;;;;;2.47;1.67;;;13.80;99.90;;;;;;4852250;29;20062;-75
2023/07/27 03:58:01;;;;;;;3.30;2.42;;;13.80;99.90;;;;;;4831805;29;20049;-75
2023/07/27 04:00:27;;;;;;;2.97;2.28;;;13.80;99.90;;;;;;4839895;29;20481;-75
2023/07/27 04:02:53;;;;;;;4.20;2.40;;;13.80;99.90;;;;;;4823451;29;20060;-75
2023/07/27 04:05:18;;;;;;;3.65;2.35;;;13.80;99.90;;;;;;4846665;29;20064;-75
2023/07/27 04:07:44;;;;;;;2.53;2.03;;;13.80;99.90;;;;;;4824363;29;20451;-75
2023/07/27 04:10:10;;;;;;;2.67;2.05;;;13.80;99.90;;;;;;4853100;29;20049;-75
2023/07/27 04:12:35;;;;;;;3.08;2.45;;;13.80;99.90;;;;;;4852781;29;20153;-75
2023/07/27 04:15:02;;;;;;;3.88;2.20;;;13.80;1.00;;;;;;4851409;29;20100;-75
2023/07/27 04:17:28;;;;;;;2.85;2.20;;;13.80;1.00;;;;;;4820496;29;20486;-75
2023/07/27 04:19:53;;;;;;;2.45;2.08;;;13.80;1.00;;;;;;4824266;29;20042;-75
2023/07/27 04:22:19;;;;;;;2.70;2.00;;;13.70;1.00;;;;;;4828348;29;20490;-76
2023/07/27 04:24:45;;;;;;;2.53;2.08;;;13.70;10.10;;;;;;4838326;29;20518;-75
2023/07/27 04:27:11;;;;;;;3.28;2.17;;;13.70;57.00;;;;;;4853827;29;20137;-75
2023/07/27 04:29:37;;;;;;;;;;;13.70;97.90;;;;;;4839370;29;20041;-76
2023/07/27 04:32:03;;;;;;;3.65;2.50;;;13.70;99.90;;;;;;4818137;29;20344;-76
2023/07/27 04:34:29;;;;;;;2.92;2.30;;;13.70;99.90;;;;;;4843029;29;20173;-82
2023/07/27 04:36:54;;;;;;;2.55;2.00;;;13.70;99.90;;;;;;4854313;29;20532;-77
2023/07/27 04:39:20;;;;;;;2.70;2.00;;;13.70;99.90;;;;;;4846046;29;20038;-77
2023/07/27 04:41:46;;;;;;;2.17;1.95;;;13.60;99.90;;;;;;4858243;29;20128;-77
2023/07/27 04:44:11;;;;;;;2.22;1.75;;;13.70;99.90;;;;;;4837470;29;20057;-77
2023/07/27 04:46:38;;;;;;;2.60;2.08;;;13.60;99.90;;;;;;4827574;29;20053;-77
2023/07/27 04:49:06;;;;;;;3.53;2.65;;;13.60;99.90;;;;;;4823725;29;20135;-76
2023/07/27 04:51:33;;;;;;;4.30;2.60;;;13.60;99.90;;;;;;4816860;29;20455;-76
2023/07/27 04:53:59;;;;;;;3.28;2.53;;;13.60;99.90;;;;;;4829276;29;20094;-76
2023/07/27 04:56:24;;;;;;;2.58;2.15;;;13.60;99.90;;;;;;4863610;29;20045;-76
2023/07/27 04:58:50;;;;;;;3.40;2.50;;;13.60;99.90;;;;;;4823517;29;20046;-76
2023/07/27 05:01:16;;;;;;;3.88;2.45;;;13.60;99.90;;;;;;4855620;29;20049;-76
2023/07/27 05:03:42;;;;;;;4.00;2.63;;;13.60;99.90;;;;;;4826899;29;20439;-76
2023/07/27 05:06:07;;;;;;;2.63;2.17;;;13.60;99.90;;;;;;4836077;29;20046;-76
2023/07/27 05:08:33;;;;;;;3.92;2.40;;;13.60;99.90;;;;;;4837472;29;20045;-76
2023/07/27 05:10:59;;;;;;;2.83;1.98;;;13.60;99.90;;;;;;4872371;29;20597;-76
2023/07/27 05:13:24;;;;;;;2.58;2.00;;;13.60;99.90;;;;;;4850511;29;20498;-76
2023/07/27 05:15:50;;;;;;;2.03;1.83;;;13.60;99.90;;;;;;4862981;29;20048;-76
2023/07/27 05:18:16;;;;;;;2.17;1.90;;;13.60;99.90;;;;;;4806863;29;20054;-76
2023/07/27 05:20:42;;;;;;;2.97;1.95;;;13.70;99.90;;;;;;4808212;29;20133;-76
2023/07/27 05:23:08;;;;;;;3.10;2.03;;;13.70;99.90;;;;;;4826400;29;20042;-76
2023/07/27 05:25:33;;;;;;;3.10;2.47;;;13.70;99.90;;;;;;4835643;29;20058;-76
2023/07/27 05:27:59;;;;;;;3.00;2.30;;;13.80;99.90;;;;;;4853017;29;20061;-76
2023/07/27 05:30:25;;;;;;;2.92;2.22;;;13.80;99.90;;;;;;4864432;29;20214;-76
2023/07/27 05:32:50;;;;;;;2.75;2.10;;;13.70;99.90;;;;;;4821365;29;20038;-75
2023/07/27 05:35:16;;;;;;;2.97;2.10;;;13.70;99.90;;;;;;4821236;29;20121;-76
2023/07/27 05:37:46;;;;;;;2.53;2.00;;;13.80;99.90;;;;;;4851480;29;20145;-76
2023/07/27 05:40:14;;;;;;;2.72;2.20;;;13.70;99.90;;;;;;4822837;29;20440;-76
2023/07/27 05:42:40;;;;;;;2.60;1.60;;;13.80;99.90;;;;;;4824485;29;20050;-76
2023/07/27 05:45:06;;;;;;;2.08;1.88;;;13.80;99.90;;;;;;4828323;29;20128;-76
2023/07/27 05:47:32;;;;;;;2.80;2.20;;;13.80;99.90;;;;;;4843659;29;20042;-77
2023/07/27 05:49:58;;;;;;;2.33;1.65;;;13.80;99.90;;;;;;4821542;29;20110;-77
2023/07/27 05:52:24;;;;;;;2.95;2.25;;;13.80;99.90;;;;;;4853563;29;20105;-77
2023/07/27 05:54:50;;;;;;;3.28;1.90;;;13.80;99.90;;;;;;4854918;29;20062;-77
2023/07/27 05:57:16;;;;;;;2.10;1.60;;;13.90;99.90;;;;;;4820377;29;20590;-77
2023/07/27 05:59:42;;;;;;;2.38;1.75;;;13.90;99.90;;;;;;4822257;29;20056;-77
2023/07/27 06:02:07;;;;;;;2.50;1.65;;;13.80;99.90;;;;;;4833693;29;20081;-77
2023/07/27 06:04:33;;;;;;;2.85;1.70;;;13.90;99.90;;;;;;4832758;29;20049;-77
2023/07/27 06:06:59;;;;;;;2.15;1.50;;;13.90;99.90;;;;;;4839545;29;20524;-77
2023/07/27 06:09:25;;;;;;;1.85;1.30;;;13.80;99.90;;;;;;4859643;29;20050;-78
2023/07/27 06:11:51;;;;;;;2.10;1.60;;;13.80;99.90;;;;;;4828407;29;20057;-78
2023/07/27 06:14:17;;;;;;;;;;;14.00;99.90;;;;;;4817948;29;20077;-78
2023/07/27 06:16:43;;;;;;;2.50;1.90;;;14.00;99.90;;;;;;4858071;29;19924;-79
2023/07/27 06:19:09;;;;;;;2.53;1.88;;;13.90;99.90;;;;;;4822060;29;21168;-79
2023/07/27 06:21:34;;;;;;;2.80;1.63;;;14.10;99.90;;;;;;4828663;29;20069;-78
2023/07/27 06:24:00;;;;;;;2.55;1.80;;;14.20;99.90;;;;;;4808069;29;20391;-78
2023/07/27 06:26:27;;;;;;;1.95;1.55;;;14.30;99.90;;;;;;4839149;29;20046;-78
2023/07/27 06:28:53;;;;;;;2.50;1.80;;;14.40;99.90;;;;;;4811111;29;20042;-78
2023/07/27 06:31:19;;;;;;;1.98;1.65;;;14.40;99.90;;;;;;4826169;29;20126;-78
2023/07/27 06:33:44;;;;;;;2.35;1.85;;;14.60;99.90;;;;;;4857482;29;20106;-77
2023/07/27 06:36:14;;;;;;;2.50;1.90;;;14.70;99.90;;;;;;4826219;29;20050;-78
2023/07/27 06:38:40;;;;;;;2.42;2.05;;;14.90;99.90;;;;;;4826445;29;20053;-78
2023/07/27 06:41:05;;;;;;;3.15;2.25;;;14.80;99.90;;;;;;4821602;29;20042;-78
2023/07/27 06:43:32;;;;;;;2.30;2.00;;;15.00;99.90;;;;;;4841945;29;20077;-77
2023/07/27 06:45:57;;;;;;;;;;;15.00;99.90;;;;;;4857300;29;20061;-78
2023/07/27 06:48:23;;;;;;;2.65;2.13;;;15.10;99.90;;;;;;4841182;29;19920;-77
2023/07/27 06:50:49;;;;;;;3.22;2.20;;;15.20;99.90;;;;;;4827741;29;20050;-77
2023/07/27 06:53:15;;;;;;;2.35;2.05;;;15.10;99.90;;;;;;4823835;29;20146;-77
2023/07/27 06:55:41;;;;;;;2.78;2.38;;;15.20;99.90;;;;;;4826309;29;20062;-78
2023/07/27 06:58:07;;;;;;;;;;;15.30;99.90;;;;;;4853724;29;20057;-77
2023/07/27 07:00:32;;;;;;;2.97;2.38;;;15.40;99.90;;;;;;4839004;29;19931;-77
2023/07/27 07:02:58;;;;;;;2.92;2.25;;;15.40;99.90;;;;;;4838887;29;20158;-78
2023/07/27 07:05:24;;;;;;;3.08;2.20;;;15.50;99.90;;;;;;4841154;29;20041;-76
2023/07/27 07:07:50;;;;;;;2.67;2.22;;;15.50;99.90;;;;;;4857239;29;20514;-77
2023/07/27 07:10:18;;;;;;;2.33;2.08;;;15.40;99.90;;;;;;4823822;29;20109;-77
2023/07/27 07:12:44;;;;;;;2.85;2.00;;;15.40;99.90;;;;;;4825996;29;20057;-78
2023/07/27 07:15:10;;;;;;;2.35;1.90;;;15.40;99.90;;;;;;4841304;29;20509;-77
2023/07/27 07:17:36;;;;;;;;;;;15.30;99.90;;;;;;4826576;29;20045;-79
2023/07/27 07:20:05;;;;;;;2.88;2.00;;;15.30;99.90;;;;;;4829627;29;19920;-76
2023/07/27 07:22:32;;;;;;;2.17;1.70;;;15.40;99.90;;;;;;4822954;29;20050;-77
2023/07/27 07:24:58;;;;;;;2.30;1.70;;;15.30;99.90;;;;;;4823115;29;20077;-76
2023/07/27 07:27:23;;;;;;;1.60;1.48;;;15.40;99.90;;;;;;4823068;29;20041;-76
2023/07/27 07:29:49;;;;;;;2.33;1.80;;;15.40;99.90;;;;;;4856180;29;20546;-77
2023/07/27 07:32:15;;;;;;;2.33;1.63;;;15.30;99.90;;;;;;4851721;29;20053;-77
2023/07/27 07:34:40;;;;;;;1.80;1.50;;;15.30;99.90;;;;;;4839841;29;20471;-77
2023/07/27 07:37:06;;;;;;;1.88;1.45;;;15.30;99.90;;;;;;4832764;29;20050;-77
2023/07/27 07:39:32;;;;;;;1.73;1.48;;;15.20;99.90;;;;;;4855857;29;20506;-78
2023/07/27 07:41:59;;;;;;;3.30;1.70;;;15.30;99.90;;;;;;4856079;29;20096;-76
2023/07/27 07:44:25;;;;;;;1.67;1.30;;;15.20;99.90;;;;;;4856113;29;20046;-76
2023/07/27 07:46:50;;;;;;;1.80;1.40;;;15.30;99.90;;;;;;4840110;29;20076;-76
2023/07/27 07:49:16;;;;;;;1.65;1.30;;;15.30;99.90;;;;;;4825599;29;20049;-77
2023/07/27 07:51:42;;;;;;;2.35;1.67;;;15.40;99.90;;;;;;4825426;29;20042;-77
2023/07/27 07:54:09;;;;;;;1.60;1.30;;;15.50;99.90;;;;;;4856224;29;20383;-77
2023/07/27 07:56:36;;;;;;;1.83;1.40;;;15.60;99.90;;;;;;4825418;29;20058;-77
2023/07/27 07:59:02;;;;;;;2.15;1.80;;;15.60;99.90;;;;;;4825433;29;20562;-77
2023/07/27 08:01:27;;;;;;;;;;;15.70;99.90;;;;;;4825553;29;20133;-77
2023/07/27 08:03:53;;;;;;;2.00;1.75;;;15.70;99.90;;;;;;4825478;29;20011;-78
2023/07/27 08:06:19;;;;;;;2.03;1.73;;;15.80;99.90;;;;;;4856297;29;20405;-77
2023/07/27 08:08:46;;;;;;;2.72;1.70;;;15.80;99.90;;;;;;4840583;29;20050;-87
2023/07/27 08:11:11;;;;;;;2.05;1.50;;;15.90;99.90;;;;;;4825074;29;20045;-78
2023/07/27 08:13:37;;;;;;;2.13;1.90;;;15.90;99.90;;;;;;4825669;29;20057;-78
2023/07/27 08:16:03;;;;;;;2.90;1.75;;;15.90;99.90;;;;;;4855929;29;20046;-78
2023/07/27 08:18:30;;;;;;;1.98;1.40;;;16.00;99.90;;;;;;4839946;29;20052;-78
2023/07/27 08:21:03;;;;;;;1.55;1.30;;;16.00;99.90;;;;;;4855328;29;20112;-78
2023/07/27 08:23:29;;;;;;;1.73;1.20;;;16.00;99.90;;;;;;4840018;29;20153;-78
2023/07/27 08:25:56;;;;;;;;;;;16.00;99.90;;;;;;4825195;29;20093;-78
2023/07/27 08:28:22;;;;;;;1.63;1.30;;;16.10;99.90;;;;;;4806235;29;19924;-78
2023/07/27 08:30:48;;;;;;;;;;;16.10;99.90;;;;;;4847928;29;20054;-78
2023/07/27 08:33:13;;;;;;;1.70;1.30;;;16.20;99.90;;;;;;4834580;29;20392;-79
2023/07/27 08:35:39;;;;;;;1.70;1.20;;;16.20;99.90;;;;;;4824211;29;20042;-78
2023/07/27 08:38:05;;;;;;;1.33;1.20;;;16.30;99.90;;;;;;4854777;29;20045;-78
2023/07/27 08:40:32;;;;;;;1.83;1.20;;;16.20;99.90;;;;;;4854113;29;20050;-78
2023/07/27 08:42:57;;;;;;;;;;;16.10;99.90;;;;;;4824730;29;20041;-78
2023/07/27 08:45:23;;;;;;;1.33;1.00;;;16.20;99.90;;;;;;4854635;29;20369;-78
2023/07/27 08:47:52;;;;;;;0.98;0.88;;;16.20;99.90;;;;;;4838159;29;20054;-78
2023/07/27 08:50:19;;;;;;;1.20;0.93;;;16.20;99.90;;;;;;4824246;29;20064;-79
2023/07/27 08:52:46;;;;;;;1.75;0.93;;;16.20;99.90;;;;;;4854706;29;20053;-77
2023/07/27 08:55:12;;;;;;;1.55;1.10;;;16.20;99.90;;;;;;4808698;29;20077;-77
2023/07/27 08:57:38;;;;;;;1.90;1.30;;;16.20;99.90;;;;;;4854642;29;20447;-77
2023/07/27 09:00:04;;;;;;;1.80;1.02;;;16.20;99.90;;;;;;4853891;29;20046;-77
2023/07/27 09:02:30;;;;;;;1.88;1.40;;;16.20;99.90;;;;;;4823441;29;20026;-77
2023/07/27 09:04:56;;;;;;;1.67;1.50;;;16.20;99.90;;;;;;4854331;29;20533;-77
2023/07/27 09:07:21;;;;;;;1.05;0.95;;;16.20;99.90;;;;;;4837705;29;20057;-78
2023/07/27 09:09:52;;;;;;;0.85;0.80;;;16.30;99.90;;;;;;4851955;29;20053;-77
2023/07/27 09:12:19;;;;;;;1.58;1.15;;;16.40;99.90;;;;;;4823540;29;20447;-78
2023/07/27 09:14:45;;;;;;;1.65;1.20;;;16.60;99.90;;;;;;4814212;29;20077;-77
2023/07/27 09:17:13;;;;;;;1.33;1.02;;;16.60;99.90;;;;;;4850785;29;20065;-78
2023/07/27 09:19:41;;;;;;;1.15;1.05;;;16.80;99.90;;;;;;4854170;29;20121;-77
2023/07/27 09:22:07;;;;;;;1.50;1.10;;;16.90;99.90;;;;;;4854943;29;20133;-77
2023/07/27 09:24:33;;;;;;;;;;;17.00;99.90;;;;;;4840193;29;20034;-77
2023/07/27 09:27:03;;;;;;;0.88;0.80;;;17.10;99.90;;;;;;4854483;29;19953;-76
2023/07/27 09:29:29;;;;;;;0.98;0.90;;;17.20;99.90;;;;;;4855991;29;20077;-78
2023/07/27 09:31:58;;;;;;;;;;;17.10;99.90;;;;;;4855063;29;20551;-77
2023/07/27 09:34:28;;;;;;;0.90;0.70;;;17.10;99.90;;;;;;4854472;29;19973;-81
2023/07/27 09:36:54;;;;;;;0.90;0.75;;;17.00;99.90;;;;;;4824352;29;20045;-78
2023/07/27 09:39:19;;;;;;;;;;;17.10;99.90;;;;;;4839754;29;20054;-78
2023/07/27 09:41:46;;;;;;;0.60;0.60;;;17.00;99.90;;;;;;4839150;29;20430;-79
2023/07/27 09:44:19;;;;;;;0.70;0.70;;;17.00;99.90;;;;;;4823566;29;20102;-78
2023/07/27 09:46:46;;;;;;;0.50;0.50;;;17.00;99.90;;;;;;4821569;29;20386;-78
2023/07/27 09:49:13;;;;;;;0.85;0.60;;;17.00;99.90;;;;;;4823644;29;20056;-78
2023/07/27 09:51:39;;;;;;;0.82;0.70;;;17.00;99.90;;;;;;4861634;29;20124;-78
2023/07/27 09:54:05;;;;;;;0.50;0.50;;;17.00;99.90;;;;;;4841113;29;20062;-79
2023/07/27 09:56:31;;;;;;;;;;;17.00;99.90;;;;;;4839097;29;20415;-78
2023/07/27 09:58:58;;;;;;;1.00;0.50;;;17.00;99.90;;;;;;4823878;29;19928;-78
2023/07/27 10:01:24;;;;;;;0.73;0.70;;;17.00;99.90;;;;;;4857215;29;20057;-77
2023/07/27 10:03:50;;;;;;;0.50;0.50;;;17.00;99.90;;;;;;4836266;29;20376;-78
2023/07/27 10:06:17;;;;;;;;;;;16.90;99.90;;;;;;4826475;29;20057;-78
2023/07/27 10:08:44;;;;;;;0.50;0.40;;;17.00;99.90;;;;;;4855282;29;19920;-79
2023/07/27 10:11:10;;;;;;;0.45;0.45;;;17.10;99.90;;;;;;4842545;29;20362;-79
2023/07/27 10:13:43;;;;;;;;;;;17.00;99.90;;;;;;4840905;29;20046;-79
2023/07/27 10:16:11;;;;;;;0.45;0.40;;;17.10;99.90;;;;;;4826699;29;19976;-79
2023/07/27 10:18:42;;;;;;;0.30;0.30;;;17.10;99.90;;;;;;4857667;29;20136;-79
2023/07/27 10:21:25;;;;;;;0.40;0.40;;;17.20;99.90;;;;;;4826867;29;20046;-79
2023/07/27 10:23:54;;;;;;;0.47;0.47;;;17.20;99.90;;;;;;4809715;29;20184;-80
2023/07/27 10:26:21;;;;;;;0.30;0.30;;;17.30;99.90;;;;;;4841677;29;20408;-80
2023/07/27 10:28:48;;;;;;;0.30;0.30;;;17.20;99.90;;;;;;4821014;29;20060;-79
2023/07/27 10:31:14;;;;;;;0.20;0.20;;;17.20;99.90;;;;;;4842088;29;20084;-77
2023/07/27 10:33:59;;;;;;;;;;;17.20;99.90;;;;;;4859517;29;20128;-77
2023/07/27 10:36:56;;;;;;;0.40;0.40;;;17.20;99.90;;;;;;4857133;29;19963;-76
2023/07/27 10:39:47;;;;;;;0.30;0.30;;;17.20;99.90;;;;;;4857173;29;20085;-78
2023/07/27 10:42:18;;;;;;;0.25;0.25;;;17.20;99.90;;;;;;4834793;29;20121;-78
2023/07/27 10:44:50;;;;;;;0.40;0.40;;;17.20;99.90;;;;;;4826423;29;20132;-78
2023/07/27 10:47:24;;;;;;;0.40;0.38;;;17.30;99.90;;;;;;4855878;29;20134;-78
2023/07/27 10:49:51;;;;;;;0.30;0.30;;;17.20;99.90;;;;;;4825630;29;20058;-78
2023/07/27 10:52:20;;;;;;;0.63;0.50;;;17.10;99.90;;;;;;4856489;29;20153;-78
2023/07/27 10:54:47;;;;;;;0.43;0.40;;;17.10;99.90;;;;;;4825487;29;20103;-78
2023/07/27 10:57:14;;;;;;;0.55;0.50;;;17.10;99.90;;;;;;4841096;29;20541;-78
2023/07/27 10:59:41;;;;;;;0.40;0.40;;;17.10;99.90;;;;;;4851537;29;20401;-76
2023/07/27 11:02:32;;;;;;;0.50;0.50;;;17.00;99.90;;;;;;4825567;29;20506;-76
2023/07/27 11:05:04;;;;;;;1.88;0.50;;;17.10;99.90;;;;;;4856621;29;20057;-78
2023/07/27 11:07:35;;;;;;;0.40;0.40;;;17.00;99.90;;;;;;4829562;29;20490;-76
2023/07/27 11:10:04;;;;;;;0.50;0.50;;;17.10;99.90;;;;;;4825406;29;20053;-76
2023/07/27 11:12:30;;;;;;;0.40;0.40;;;17.10;99.90;;;;;;4854003;29;20054;-76
2023/07/27 11:15:12;;;;;;;;;;;17.00;99.90;;;;;;4841539;29;20054;-76
2023/07/27 11:17:39;;;;;;;0.57;0.50;;;16.90;99.90;;;;;;4856612;29;19920;-78
2023/07/27 11:20:05;;;;;;;0.35;0.35;;;16.90;99.90;;;;;;4825726;29;20049;-78
2023/07/27 11:22:31;;;;;;;0.30;0.30;;;16.90;99.90;;;;;;4841299;29;20562;-79
2023/07/27 11:24:56;;;;;;;;;;;17.00;99.90;;;;;;4868318;29;20153;-79
2023/07/27 11:27:24;;;;;;;0.38;0.38;;;17.00;99.90;;;;;;4857393;29;19925;-80
2023/07/27 11:29:51;;;;;;;0.45;0.45;;;16.90;99.90;;;;;;4858430;29;20042;-80
2023/07/27 11:32:24;;;;;;;0.50;0.50;;;16.90;99.90;;;;;;4874966;29;20085;-79
2023/07/27 11:34:54;;;;;;;0.45;0.45;;;17.00;99.90;;;;;;4839209;29;20050;-80
2023/07/27 11:37:19;;;;;;;0.85;0.50;;;17.20;99.90;;;;;;4825640;29;20050;-79
2023/07/27 11:39:45;;;;;;;;;;;17.00;99.90;;;;;;4856249;29;20046;-79
2023/07/27 11:42:13;;;;;;;0.70;0.70;;;17.30;99.90;;;;;;4825427;29;19973;-79
2023/07/27 11:44:39;;;;;;;0.70;0.70;;;17.10;99.90;;;;;;4837016;29;20049;-79
2023/07/27 11:47:05;;;;;;;0.60;0.60;;;17.10;99.90;;;;;;4833065;29;20045;-79
2023/07/27 11:49:30;;;;;;;;;;;17.20;99.90;;;;;;4830943;29;20485;-79
2023/07/27 11:51:57;;;;;;;0.60;0.60;;;17.20;99.90;;;;;;4868648;29;20470;-80
2023/07/27 11:54:25;;;;;;;1.13;0.90;;;17.40;99.90;;;;;;4839593;29;20126;-79
2023/07/27 11:56:56;;;;;;;0.70;0.70;;;17.50;99.90;;;;;;4857306;29;20049;-79
2023/07/27 11:59:22;;;;;;;0.80;0.80;;;17.60;99.90;;;;;;4842899;29;20136;-79
2023/07/27 12:01:52;;;;;;;0.57;0.57;;;17.40;99.90;;;;;;4830047;29;20120;-78
2023/07/27 12:04:19;;;;;;;0.63;0.60;;;17.50;99.90;;;;;;4858480;29;20165;-79
2023/07/27 12:06:45;;;;;;;0.60;0.60;;;17.80;99.90;;;;;;4857301;29;20056;-79
2023/07/27 12:09:11;;;;;;;;;;;17.50;99.90;;;;;;4855527;29;20455;-79
2023/07/27 12:11:38;;;;;;;0.60;0.60;;;17.60;99.90;;;;;;4865009;29;19920;-79
2023/07/27 12:14:08;;;;;;;0.68;0.68;;;17.80;99.90;;;;;;4843112;29;20052;-79
2023/07/27 12:16:44;;;;;;;0.70;0.70;;;17.70;99.90;;;;;;4864968;29;20052;-80
2023/07/27 12:19:10;;;;;;;0.60;0.60;;;17.50;99.90;;;;;;4870479;29;20053;-79
2023/07/27 12:21:40;;;;;;;0.50;0.50;;;17.70;99.90;;;;;;4841875;29;20054;-80
2023/07/27 12:24:10;;;;;;;0.70;0.70;;;17.70;99.90;;;;;;4856512;29;20053;-79
2023/07/27 12:26:36;;;;;;;0.50;0.50;;;17.80;99.90;;;;;;4855100;29;20065;-80
2023/07/27 12:29:02;;;;;;;0.50;0.50;;;18.20;99.90;;;;;;4849395;29;20089;-80
2023/07/27 12:31:28;;;;;;;0.40;0.40;;;18.00;99.90;;;;;;4846772;29;20053;-79
2023/07/27 12:33:54;;;;;;;;;;;18.00;99.90;;;;;;4850846;29;20049;-80
2023/07/27 12:36:20;;;;;;;0.50;0.50;;;18.50;99.90;;;;;;4859767;29;19947;-80
2023/07/27 12:38:46;;;;;;;;;;;18.20;99.90;;;;;;4833342;29;20053;-80
2023/07/27 12:41:11;;;;;;;0.40;0.40;;;18.50;99.90;;;;;;4838230;29;19921;-79
2023/07/27 12:43:37;;;;;;;0.50;0.47;;;18.30;99.90;;;;;;4834552;29;20042;-80
2023/07/27 12:46:04;;;;;;;;;;;18.40;99.90;;;;;;4867646;29;20053;-80
2023/07/27 12:48:30;;;;;;;;;;;18.50;99.90;;;;;;4847210;29;19927;-80
2023/07/27 12:50:56;;;;;;;0.50;0.50;;;18.80;99.90;;;;;;4861411;29;19924;-80
2023/07/27 12:53:21;;;;;;;0.35;0.35;;;18.40;99.90;;;;;;4854539;29;20049;-80